sensor_id;sensor_type;location;lat;lon;timestamp;temperature;humidity
21039;DHT22;10678;51.002;4.786;2023-04-09T00:01:04;7.70;99.90
21039;DHT22;10678;51.002;4.786;2023-04-09T00:03:30;7.70;99.90
21039;DHT22;10678;51.002;4.786;2023-04-09T00:05:56;7.70;99.90
21039;DHT22;10678;51.002;4.786;2023-04-09T00:08:21;7.70;99.90
21039;DHT22;10678;51.002;4.786;2023-04-09T00:10:51;7.70;99.90
21039;DHT22;10678;51.002;4.786;2023-04-09T00:13:16;7.60;99.90
21039;DHT22;10678;51.002;4.786;2023-04-09T00:15:43;7.70;99.90
21039;DHT22;10678;51.002;4.786;2023-04-09T00:18:09;7.60;99.90
21039;DHT22;10678;51.002;4.786;2023-04-09T00:20:34;7.60;99.90
21039;DHT22;10678;51.002;4.786;2023-04-09T00:23:00;7.60;99.90
21039;DHT22;10678;51.002;4.786;2023-04-09T00:25:26;7.50;99.90
21039;DHT22;10678;51.002;4.786;2023-04-09T00:27:53;7.50;99.90
21039;DHT22;10678;51.002;4.786;2023-04-09T00:30:19;7.60;99.90
21039;DHT22;10678;51.002;4.786;2023-04-09T00:32:44;7.60;99.90
21039;DHT22;10678;51.002;4.786;2023-04-09T00:35:10;7.50;99.90
21039;DHT22;10678;51.002;4.786;2023-04-09T00:37:36;7.50;99.90
21039;DHT22;10678;51.002;4.786;2023-04-09T00:40:02;7.50;99.90
21039;DHT22;10678;51.002;4.786;2023-04-09T00:42:35;7.50;99.90
21039;DHT22;10678;51.002;4.786;2023-04-09T00:45:02;7.40;99.90
21039;DHT22;10678;51.002;4.786;2023-04-09T00:47:28;7.40;99.90
21039;DHT22;10678;51.002;4.786;2023-04-09T00:49:56;7.30;99.90
21039;DHT22;10678;51.002;4.786;2023-04-09T00:52:22;7.40;99.90
21039;DHT22;10678;51.002;4.786;2023-04-09T00:54:49;7.30;99.90
21039;DHT22;10678;51.002;4.786;2023-04-09T00:57:16;7.30;99.90
21039;DHT22;10678;51.002;4.786;2023-04-09T00:59:42;7.30;99.90
21039;DHT22;10678;51.002;4.786;2023-04-09T01:02:08;7.30;99.90
21039;DHT22;10678;51.002;4.786;2023-04-09T01:04:35;7.30;99.90
21039;DHT22;10678;51.002;4.786;2023-04-09T01:07:20;7.40;99.90
21039;DHT22;10678;51.002;4.786;2023-04-09T01:10:18;7.50;99.90
21039;DHT22;10678;51.002;4.786;2023-04-09T01:15:43;7.70;99.90
21039;DHT22;10678;51.002;4.786;2023-04-09T01:18:24;7.90;99.90
21039;DHT22;10678;51.002;4.786;2023-04-09T01:21:05;8.00;99.90
21039;DHT22;10678;51.002;4.786;2023-04-09T01:24:01;8.10;99.90
21039;DHT22;10678;51.002;4.786;2023-04-09T01:26:56;8.10;99.90
21039;DHT22;10678;51.002;4.786;2023-04-09T01:29:23;8.20;99.90
21039;DHT22;10678;51.002;4.786;2023-04-09T01:31:51;8.20;99.90
21039;DHT22;10678;51.002;4.786;2023-04-09T01:34:17;8.40;99.90
21039;DHT22;10678;51.002;4.786;2023-04-09T01:36:49;8.50;99.90
21039;DHT22;10678;51.002;4.786;2023-04-09T01:39:16;8.50;99.90
21039;DHT22;10678;51.002;4.786;2023-04-09T01:41:42;8.60;99.90
21039;DHT22;10678;51.002;4.786;2023-04-09T01:44:09;8.70;99.90
21039;DHT22;10678;51.002;4.786;2023-04-09T01:46:38;8.70;99.90
21039;DHT22;10678;51.002;4.786;2023-04-09T01:49:04;8.80;99.90
21039;DHT22;10678;51.002;4.786;2023-04-09T01:51:31;8.90;99.90
21039;DHT22;10678;51.002;4.786;2023-04-09T01:53:58;9.00;99.90
21039;DHT22;10678;51.002;4.786;2023-04-09T01:56:23;9.10;99.90
21039;DHT22;10678;51.002;4.786;2023-04-09T01:58:49;9.10;99.90
21039;DHT22;10678;51.002;4.786;2023-04-09T02:01:52;9.00;99.90
21039;DHT22;10678;51.002;4.786;2023-04-09T02:04:25;9.10;99.90
21039;DHT22;10678;51.002;4.786;2023-04-09T02:06:59;9.20;99.90
21039;DHT22;10678;51.002;4.786;2023-04-09T02:09:30;9.30;99.90
21039;DHT22;10678;51.002;4.786;2023-04-09T02:11:59;9.40;99.90
21039;DHT22;10678;51.002;4.786;2023-04-09T02:14:26;9.40;99.90
21039;DHT22;10678;51.002;4.786;2023-04-09T02:16:52;9.40;99.90
21039;DHT22;10678;51.002;4.786;2023-04-09T02:19:18;9.40;99.90
21039;DHT22;10678;51.002;4.786;2023-04-09T02:21:44;9.50;99.90
21039;DHT22;10678;51.002;4.786;2023-04-09T02:24:10;9.50;99.90
21039;DHT22;10678;51.002;4.786;2023-04-09T02:26:36;9.60;99.90
21039;DHT22;10678;51.002;4.786;2023-04-09T02:29:01;9.60;99.90
21039;DHT22;10678;51.002;4.786;2023-04-09T02:31:27;9.60;99.90
21039;DHT22;10678;51.002;4.786;2023-04-09T02:33:52;9.50;99.90
21039;DHT22;10678;51.002;4.786;2023-04-09T02:36:18;9.60;99.90
21039;DHT22;10678;51.002;4.786;2023-04-09T02:38:44;9.60;99.90
21039;DHT22;10678;51.002;4.786;2023-04-09T02:41:09;9.70;99.90
21039;DHT22;10678;51.002;4.786;2023-04-09T02:43:35;9.80;99.90
21039;DHT22;10678;51.002;4.786;2023-04-09T02:46:01;9.80;99.90
21039;DHT22;10678;51.002;4.786;2023-04-09T02:48:27;9.90;99.90
21039;DHT22;10678;51.002;4.786;2023-04-09T02:50:52;9.80;99.90
21039;DHT22;10678;51.002;4.786;2023-04-09T02:53:18;9.80;99.90
21039;DHT22;10678;51.002;4.786;2023-04-09T02:55:46;9.60;99.90
21039;DHT22;10678;51.002;4.786;2023-04-09T02:58:11;9.70;99.90
21039;DHT22;10678;51.002;4.786;2023-04-09T03:00:37;9.80;99.90
21039;DHT22;10678;51.002;4.786;2023-04-09T03:03:02;9.80;99.90
21039;DHT22;10678;51.002;4.786;2023-04-09T03:05:28;9.80;99.90
21039;DHT22;10678;51.002;4.786;2023-04-09T03:07:53;9.80;99.90
21039;DHT22;10678;51.002;4.786;2023-04-09T03:10:19;9.80;99.90
21039;DHT22;10678;51.002;4.786;2023-04-09T03:12:45;9.80;99.90
21039;DHT22;10678;51.002;4.786;2023-04-09T03:15:12;9.70;99.90
21039;DHT22;10678;51.002;4.786;2023-04-09T03:17:38;9.70;99.90
21039;DHT22;10678;51.002;4.786;2023-04-09T03:20:07;9.60;99.90
21039;DHT22;10678;51.002;4.786;2023-04-09T03:22:37;9.40;99.90
21039;DHT22;10678;51.002;4.786;2023-04-09T03:25:03;9.30;99.90
21039;DHT22;10678;51.002;4.786;2023-04-09T03:27:28;9.10;99.90
21039;DHT22;10678;51.002;4.786;2023-04-09T03:29:57;9.10;99.90
21039;DHT22;10678;51.002;4.786;2023-04-09T03:32:22;8.90;99.90
21039;DHT22;10678;51.002;4.786;2023-04-09T03:34:48;8.80;99.90
21039;DHT22;10678;51.002;4.786;2023-04-09T03:37:14;8.70;99.90
21039;DHT22;10678;51.002;4.786;2023-04-09T03:39:39;8.60;99.90
21039;DHT22;10678;51.002;4.786;2023-04-09T03:42:05;8.50;99.90
21039;DHT22;10678;51.002;4.786;2023-04-09T03:44:31;8.50;99.90
21039;DHT22;10678;51.002;4.786;2023-04-09T03:46:57;8.40;99.90
21039;DHT22;10678;51.002;4.786;2023-04-09T03:49:22;8.30;99.90
21039;DHT22;10678;51.002;4.786;2023-04-09T03:51:48;8.20;99.90
21039;DHT22;10678;51.002;4.786;2023-04-09T03:54:13;8.10;99.90
21039;DHT22;10678;51.002;4.786;2023-04-09T03:56:39;8.10;99.90
21039;DHT22;10678;51.002;4.786;2023-04-09T03:59:05;8.00;99.90
21039;DHT22;10678;51.002;4.786;2023-04-09T04:01:30;7.90;99.90
21039;DHT22;10678;51.002;4.786;2023-04-09T04:03:56;7.80;99.90
21039;DHT22;10678;51.002;4.786;2023-04-09T04:06:21;7.80;99.90
21039;DHT22;10678;51.002;4.786;2023-04-09T04:08:47;7.80;99.90
21039;DHT22;10678;51.002;4.786;2023-04-09T04:11:13;7.80;99.90
21039;DHT22;10678;51.002;4.786;2023-04-09T04:13:38;7.70;99.90
21039;DHT22;10678;51.002;4.786;2023-04-09T04:16:07;7.60;99.90
21039;DHT22;10678;51.002;4.786;2023-04-09T04:18:34;7.60;99.90
21039;DHT22;10678;51.002;4.786;2023-04-09T04:21:00;7.50;99.90
21039;DHT22;10678;51.002;4.786;2023-04-09T04:23:25;7.40;99.90
21039;DHT22;10678;51.002;4.786;2023-04-09T04:25:51;7.40;99.90
21039;DHT22;10678;51.002;4.786;2023-04-09T04:28:17;7.40;99.90
21039;DHT22;10678;51.002;4.786;2023-04-09T04:30:43;7.40;99.90
21039;DHT22;10678;51.002;4.786;2023-04-09T04:33:09;7.40;99.90
21039;DHT22;10678;51.002;4.786;2023-04-09T04:35:34;7.30;99.90
21039;DHT22;10678;51.002;4.786;2023-04-09T04:38:00;7.30;99.90
21039;DHT22;10678;51.002;4.786;2023-04-09T04:40:26;7.20;99.90
21039;DHT22;10678;51.002;4.786;2023-04-09T04:42:51;7.00;99.90
21039;DHT22;10678;51.002;4.786;2023-04-09T04:45:17;7.10;99.90
21039;DHT22;10678;51.002;4.786;2023-04-09T04:47:43;7.10;99.90
21039;DHT22;10678;51.002;4.786;2023-04-09T04:50:08;7.10;99.90
21039;DHT22;10678;51.002;4.786;2023-04-09T04:52:35;7.00;99.90
21039;DHT22;10678;51.002;4.786;2023-04-09T04:55:01;7.00;99.90
21039;DHT22;10678;51.002;4.786;2023-04-09T04:57:26;7.00;99.90
21039;DHT22;10678;51.002;4.786;2023-04-09T04:59:52;6.90;99.90
21039;DHT22;10678;51.002;4.786;2023-04-09T05:02:18;6.90;99.90
21039;DHT22;10678;51.002;4.786;2023-04-09T05:04:43;6.80;99.90
21039;DHT22;10678;51.002;4.786;2023-04-09T05:07:09;6.80;99.90
21039;DHT22;10678;51.002;4.786;2023-04-09T05:09:34;6.80;99.90
21039;DHT22;10678;51.002;4.786;2023-04-09T05:12:00;6.70;99.90
21039;DHT22;10678;51.002;4.786;2023-04-09T05:14:25;6.70;99.90
21039;DHT22;10678;51.002;4.786;2023-04-09T05:16:51;6.70;99.90
21039;DHT22;10678;51.002;4.786;2023-04-09T05:19:17;6.70;99.90
21039;DHT22;10678;51.002;4.786;2023-04-09T05:21:42;6.70;99.90
21039;DHT22;10678;51.002;4.786;2023-04-09T05:24:08;6.70;99.90
21039;DHT22;10678;51.002;4.786;2023-04-09T05:26:33;6.70;99.90
21039;DHT22;10678;51.002;4.786;2023-04-09T05:28:59;6.70;99.90
21039;DHT22;10678;51.002;4.786;2023-04-09T05:31:25;6.80;99.90
21039;DHT22;10678;51.002;4.786;2023-04-09T05:33:50;6.80;99.90
21039;DHT22;10678;51.002;4.786;2023-04-09T05:36:17;6.90;99.90
21039;DHT22;10678;51.002;4.786;2023-04-09T05:38:47;6.90;99.90
21039;DHT22;10678;51.002;4.786;2023-04-09T05:41:12;6.90;99.90
21039;DHT22;10678;51.002;4.786;2023-04-09T05:43:38;6.90;99.90
21039;DHT22;10678;51.002;4.786;2023-04-09T05:46:04;6.90;99.90
21039;DHT22;10678;51.002;4.786;2023-04-09T05:48:30;7.00;99.90
21039;DHT22;10678;51.002;4.786;2023-04-09T05:50:55;7.00;99.90
21039;DHT22;10678;51.002;4.786;2023-04-09T05:53:21;7.00;99.90
21039;DHT22;10678;51.002;4.786;2023-04-09T05:55:47;7.10;99.90
21039;DHT22;10678;51.002;4.786;2023-04-09T05:58:16;7.20;99.90
21039;DHT22;10678;51.002;4.786;2023-04-09T06:00:43;7.30;99.90
21039;DHT22;10678;51.002;4.786;2023-04-09T06:03:08;7.40;99.90
21039;DHT22;10678;51.002;4.786;2023-04-09T06:05:34;7.50;99.90
21039;DHT22;10678;51.002;4.786;2023-04-09T06:08:00;7.60;99.90
21039;DHT22;10678;51.002;4.786;2023-04-09T06:10:26;7.60;99.90
21039;DHT22;10678;51.002;4.786;2023-04-09T06:12:51;7.70;99.90
21039;DHT22;10678;51.002;4.786;2023-04-09T06:15:17;7.80;99.90
21039;DHT22;10678;51.002;4.786;2023-04-09T06:17:43;7.80;99.90
21039;DHT22;10678;51.002;4.786;2023-04-09T06:20:09;7.80;99.90
21039;DHT22;10678;51.002;4.786;2023-04-09T06:22:35;7.90;99.90
21039;DHT22;10678;51.002;4.786;2023-04-09T06:25:01;8.10;99.90
21039;DHT22;10678;51.002;4.786;2023-04-09T06:27:27;8.20;99.90
21039;DHT22;10678;51.002;4.786;2023-04-09T06:29:52;8.20;99.90
21039;DHT22;10678;51.002;4.786;2023-04-09T06:32:18;8.40;99.90
21039;DHT22;10678;51.002;4.786;2023-04-09T06:34:43;8.50;99.90
21039;DHT22;10678;51.002;4.786;2023-04-09T06:37:09;8.60;99.90
21039;DHT22;10678;51.002;4.786;2023-04-09T06:39:35;8.80;99.90
21039;DHT22;10678;51.002;4.786;2023-04-09T06:42:00;8.80;99.90
21039;DHT22;10678;51.002;4.786;2023-04-09T06:44:28;8.90;99.90
21039;DHT22;10678;51.002;4.786;2023-04-09T06:46:54;9.00;99.90
21039;DHT22;10678;51.002;4.786;2023-04-09T06:49:20;9.30;99.90
21039;DHT22;10678;51.002;4.786;2023-04-09T06:51:45;9.70;99.90
21039;DHT22;10678;51.002;4.786;2023-04-09T06:54:11;9.90;99.90
21039;DHT22;10678;51.002;4.786;2023-04-09T06:56:36;10.20;99.90
21039;DHT22;10678;51.002;4.786;2023-04-09T06:59:02;10.50;99.90
21039;DHT22;10678;51.002;4.786;2023-04-09T07:01:28;10.60;99.90
21039;DHT22;10678;51.002;4.786;2023-04-09T07:03:53;10.80;99.90
21039;DHT22;10678;51.002;4.786;2023-04-09T07:06:19;11.00;99.90
21039;DHT22;10678;51.002;4.786;2023-04-09T07:08:44;11.00;99.90
21039;DHT22;10678;51.002;4.786;2023-04-09T07:11:10;11.10;99.90
21039;DHT22;10678;51.002;4.786;2023-04-09T07:13:36;11.10;99.90
21039;DHT22;10678;51.002;4.786;2023-04-09T07:16:01;11.10;99.90
21039;DHT22;10678;51.002;4.786;2023-04-09T07:18:27;11.30;99.90
21039;DHT22;10678;51.002;4.786;2023-04-09T07:20:53;11.50;99.90
21039;DHT22;10678;51.002;4.786;2023-04-09T07:23:19;11.80;99.90
21039;DHT22;10678;51.002;4.786;2023-04-09T07:25:45;11.80;99.90
21039;DHT22;10678;51.002;4.786;2023-04-09T07:28:11;11.90;99.90
21039;DHT22;10678;51.002;4.786;2023-04-09T07:30:38;12.30;99.90
21039;DHT22;10678;51.002;4.786;2023-04-09T07:33:04;12.90;99.90
21039;DHT22;10678;51.002;4.786;2023-04-09T07:35:30;13.70;99.90
21039;DHT22;10678;51.002;4.786;2023-04-09T07:37:56;13.30;99.90
21039;DHT22;10678;51.002;4.786;2023-04-09T07:40:23;13.70;99.90
21039;DHT22;10678;51.002;4.786;2023-04-09T07:42:48;14.10;99.90
21039;DHT22;10678;51.002;4.786;2023-04-09T07:45:15;15.20;99.90
21039;DHT22;10678;51.002;4.786;2023-04-09T07:47:41;16.90;99.90
21039;DHT22;10678;51.002;4.786;2023-04-09T07:50:07;18.20;99.90
21039;DHT22;10678;51.002;4.786;2023-04-09T07:52:33;20.40;99.90
21039;DHT22;10678;51.002;4.786;2023-04-09T07:54:58;22.70;99.90
21039;DHT22;10678;51.002;4.786;2023-04-09T07:57:24;24.30;99.90
21039;DHT22;10678;51.002;4.786;2023-04-09T07:59:52;25.00;98.00
21039;DHT22;10678;51.002;4.786;2023-04-09T08:02:17;26.40;96.20
21039;DHT22;10678;51.002;4.786;2023-04-09T08:04:43;27.60;90.80
21039;DHT22;10678;51.002;4.786;2023-04-09T08:07:09;26.40;86.20
21039;DHT22;10678;51.002;4.786;2023-04-09T08:09:34;27.20;88.90
21039;DHT22;10678;51.002;4.786;2023-04-09T08:12:00;28.50;82.40
21039;DHT22;10678;51.002;4.786;2023-04-09T08:14:26;29.50;78.20
21039;DHT22;10678;51.002;4.786;2023-04-09T08:16:52;30.10;74.30
21039;DHT22;10678;51.002;4.786;2023-04-09T08:19:17;30.10;69.30
21039;DHT22;10678;51.002;4.786;2023-04-09T08:21:44;31.00;67.70
21039;DHT22;10678;51.002;4.786;2023-04-09T08:24:13;30.90;65.00
21039;DHT22;10678;51.002;4.786;2023-04-09T08:26:39;31.20;63.60
21039;DHT22;10678;51.002;4.786;2023-04-09T08:29:06;30.90;64.00
21039;DHT22;10678;51.002;4.786;2023-04-09T08:31:32;31.90;59.90
21039;DHT22;10678;51.002;4.786;2023-04-09T08:33:58;31.90;61.80
21039;DHT22;10678;51.002;4.786;2023-04-09T08:36:24;33.10;56.50
21039;DHT22;10678;51.002;4.786;2023-04-09T08:38:50;32.90;58.80
21039;DHT22;10678;51.002;4.786;2023-04-09T08:41:22;32.00;54.70
21039;DHT22;10678;51.002;4.786;2023-04-09T08:43:50;32.90;56.70
21039;DHT22;10678;51.002;4.786;2023-04-09T08:46:18;31.90;54.60
21039;DHT22;10678;51.002;4.786;2023-04-09T08:48:44;32.60;54.50
21039;DHT22;10678;51.002;4.786;2023-04-09T08:51:18;32.90;53.30
21039;DHT22;10678;51.002;4.786;2023-04-09T08:53:46;33.30;52.50
21039;DHT22;10678;51.002;4.786;2023-04-09T08:56:13;33.10;52.00
21039;DHT22;10678;51.002;4.786;2023-04-09T08:58:43;33.10;52.60
21039;DHT22;10678;51.002;4.786;2023-04-09T09:01:30;34.20;50.30
21039;DHT22;10678;51.002;4.786;2023-04-09T09:04:03;33.70;52.80
21039;DHT22;10678;51.002;4.786;2023-04-09T09:06:35;33.80;49.10
21039;DHT22;10678;51.002;4.786;2023-04-09T09:09:12;33.60;49.90
21039;DHT22;10678;51.002;4.786;2023-04-09T09:11:46;35.00;48.90
21039;DHT22;10678;51.002;4.786;2023-04-09T09:14:17;35.60;48.20
21039;DHT22;10678;51.002;4.786;2023-04-09T09:21:56;36.00;45.30
21039;DHT22;10678;51.002;4.786;2023-04-09T09:24:22;36.50;45.30
21039;DHT22;10678;51.002;4.786;2023-04-09T09:26:48;36.90;44.30
21039;DHT22;10678;51.002;4.786;2023-04-09T09:29:13;37.70;42.90
21039;DHT22;10678;51.002;4.786;2023-04-09T09:31:50;37.10;43.00
21039;DHT22;10678;51.002;4.786;2023-04-09T09:34:17;37.50;43.40
21039;DHT22;10678;51.002;4.786;2023-04-09T09:36:43;38.10;42.50
21039;DHT22;10678;51.002;4.786;2023-04-09T09:39:10;38.50;41.00
21039;DHT22;10678;51.002;4.786;2023-04-09T09:41:38;38.80;40.60
21039;DHT22;10678;51.002;4.786;2023-04-09T09:44:04;39.50;39.90
21039;DHT22;10678;51.002;4.786;2023-04-09T09:46:49;39.50;39.60
21039;DHT22;10678;51.002;4.786;2023-04-09T09:49:15;40.20;40.00
21039;DHT22;10678;51.002;4.786;2023-04-09T09:51:41;40.90;38.30
21039;DHT22;10678;51.002;4.786;2023-04-09T09:54:07;40.60;39.30
21039;DHT22;10678;51.002;4.786;2023-04-09T09:56:37;41.40;35.40
21039;DHT22;10678;51.002;4.786;2023-04-09T10:01:36;40.60;36.00
21039;DHT22;10678;51.002;4.786;2023-04-09T10:04:04;40.10;37.00
21039;DHT22;10678;51.002;4.786;2023-04-09T10:06:32;41.30;35.60
21039;DHT22;10678;51.002;4.786;2023-04-09T10:09:02;41.50;35.80
21039;DHT22;10678;51.002;4.786;2023-04-09T10:11:30;41.60;34.70
21039;DHT22;10678;51.002;4.786;2023-04-09T10:13:57;40.40;34.80
21039;DHT22;10678;51.002;4.786;2023-04-09T10:16:24;40.80;35.80
21039;DHT22;10678;51.002;4.786;2023-04-09T10:18:51;41.40;35.00
21039;DHT22;10678;51.002;4.786;2023-04-09T10:24:03;41.10;33.90
21039;DHT22;10678;51.002;4.786;2023-04-09T10:26:34;39.90;35.90
21039;DHT22;10678;51.002;4.786;2023-04-09T10:29:27;39.90;35.90
21039;DHT22;10678;51.002;4.786;2023-04-09T10:32:03;41.20;34.60
21039;DHT22;10678;51.002;4.786;2023-04-09T10:34:34;40.80;34.20
21039;DHT22;10678;51.002;4.786;2023-04-09T10:37:00;39.20;35.60
21039;DHT22;10678;51.002;4.786;2023-04-09T10:39:29;39.40;34.40
21039;DHT22;10678;51.002;4.786;2023-04-09T10:41:57;38.70;34.60
21039;DHT22;10678;51.002;4.786;2023-04-09T10:44:25;39.50;35.30
21039;DHT22;10678;51.002;4.786;2023-04-09T10:46:57;40.30;34.10
21039;DHT22;10678;51.002;4.786;2023-04-09T10:49:24;40.10;34.40
21039;DHT22;10678;51.002;4.786;2023-04-09T10:52:00;39.90;34.40
21039;DHT22;10678;51.002;4.786;2023-04-09T11:01:59;38.70;34.10
21039;DHT22;10678;51.002;4.786;2023-04-09T11:07:04;39.40;35.00
21039;DHT22;10678;51.002;4.786;2023-04-09T11:09:34;39.10;37.30
21039;DHT22;10678;51.002;4.786;2023-04-09T11:12:00;39.50;35.10
21039;DHT22;10678;51.002;4.786;2023-04-09T11:14:26;40.10;34.90
21039;DHT22;10678;51.002;4.786;2023-04-09T11:16:52;38.70;35.40
21039;DHT22;10678;51.002;4.786;2023-04-09T11:19:19;38.10;35.50
21039;DHT22;10678;51.002;4.786;2023-04-09T11:21:44;37.00;36.40
21039;DHT22;10678;51.002;4.786;2023-04-09T11:24:12;36.80;37.00
21039;DHT22;10678;51.002;4.786;2023-04-09T11:26:37;37.60;36.40
21039;DHT22;10678;51.002;4.786;2023-04-09T11:29:06;38.70;35.30
21039;DHT22;10678;51.002;4.786;2023-04-09T11:31:33;37.90;36.00
21039;DHT22;10678;51.002;4.786;2023-04-09T11:33:59;38.50;36.00
21039;DHT22;10678;51.002;4.786;2023-04-09T11:36:25;39.10;36.30
21039;DHT22;10678;51.002;4.786;2023-04-09T11:38:52;39.90;35.30
21039;DHT22;10678;51.002;4.786;2023-04-09T11:41:34;38.40;34.00
21039;DHT22;10678;51.002;4.786;2023-04-09T11:44:04;37.20;36.40
21039;DHT22;10678;51.002;4.786;2023-04-09T11:46:31;36.20;37.20
21039;DHT22;10678;51.002;4.786;2023-04-09T11:48:57;33.40;40.40
21039;DHT22;10678;51.002;4.786;2023-04-09T11:51:22;31.80;42.60
21039;DHT22;10678;51.002;4.786;2023-04-09T11:53:48;31.40;44.20
21039;DHT22;10678;51.002;4.786;2023-04-09T11:56:15;33.70;42.70
21039;DHT22;10678;51.002;4.786;2023-04-09T11:58:44;33.20;41.00
21039;DHT22;10678;51.002;4.786;2023-04-09T12:01:11;31.40;44.40
21039;DHT22;10678;51.002;4.786;2023-04-09T12:03:37;32.70;44.20
21039;DHT22;10678;51.002;4.786;2023-04-09T12:06:04;33.70;41.00
21039;DHT22;10678;51.002;4.786;2023-04-09T12:08:33;32.50;42.20
21039;DHT22;10678;51.002;4.786;2023-04-09T12:11:13;32.70;42.20
21039;DHT22;10678;51.002;4.786;2023-04-09T12:13:39;33.90;39.20
21039;DHT22;10678;51.002;4.786;2023-04-09T12:16:07;35.30;39.20
21039;DHT22;10678;51.002;4.786;2023-04-09T12:18:38;37.00;39.60
21039;DHT22;10678;51.002;4.786;2023-04-09T12:21:04;37.50;38.20
21039;DHT22;10678;51.002;4.786;2023-04-09T12:23:30;36.90;38.40
21039;DHT22;10678;51.002;4.786;2023-04-09T12:25:56;37.00;35.90
21039;DHT22;10678;51.002;4.786;2023-04-09T12:28:25;34.60;38.00
21039;DHT22;10678;51.002;4.786;2023-04-09T12:30:52;33.40;42.30
21039;DHT22;10678;51.002;4.786;2023-04-09T12:33:17;34.10;40.10
21039;DHT22;10678;51.002;4.786;2023-04-09T12:35:43;34.80;39.00
21039;DHT22;10678;51.002;4.786;2023-04-09T12:38:09;37.00;38.80
21039;DHT22;10678;51.002;4.786;2023-04-09T12:40:35;36.70;37.50
21039;DHT22;10678;51.002;4.786;2023-04-09T12:43:01;38.00;39.10
21039;DHT22;10678;51.002;4.786;2023-04-09T12:45:28;38.80;34.90
21039;DHT22;10678;51.002;4.786;2023-04-09T12:47:54;39.20;35.80
21039;DHT22;10678;51.002;4.786;2023-04-09T12:50:20;39.80;34.00
21039;DHT22;10678;51.002;4.786;2023-04-09T12:52:46;39.30;34.90
21039;DHT22;10678;51.002;4.786;2023-04-09T12:55:13;39.60;33.50
21039;DHT22;10678;51.002;4.786;2023-04-09T12:57:41;39.70;32.90
21039;DHT22;10678;51.002;4.786;2023-04-09T13:00:07;39.30;33.20
21039;DHT22;10678;51.002;4.786;2023-04-09T13:02:33;38.40;34.70
21039;DHT22;10678;51.002;4.786;2023-04-09T13:04:59;38.50;34.00
21039;DHT22;10678;51.002;4.786;2023-04-09T13:07:25;38.70;35.30
21039;DHT22;10678;51.002;4.786;2023-04-09T13:09:54;38.40;35.00
21039;DHT22;10678;51.002;4.786;2023-04-09T13:12:20;38.80;34.50
21039;DHT22;10678;51.002;4.786;2023-04-09T13:14:47;38.80;34.40
21039;DHT22;10678;51.002;4.786;2023-04-09T13:17:13;37.60;33.50
21039;DHT22;10678;51.002;4.786;2023-04-09T13:19:39;37.20;34.80
21039;DHT22;10678;51.002;4.786;2023-04-09T13:22:05;35.80;35.70
21039;DHT22;10678;51.002;4.786;2023-04-09T13:24:33;36.60;35.00
21039;DHT22;10678;51.002;4.786;2023-04-09T13:26:59;35.70;36.30
21039;DHT22;10678;51.002;4.786;2023-04-09T13:29:25;35.20;35.90
21039;DHT22;10678;51.002;4.786;2023-04-09T13:31:54;34.00;36.80
21039;DHT22;10678;51.002;4.786;2023-04-09T13:34:20;31.90;40.70
21039;DHT22;10678;51.002;4.786;2023-04-09T13:36:46;29.50;42.60
21039;DHT22;10678;51.002;4.786;2023-04-09T13:39:11;28.10;46.00
21039;DHT22;10678;51.002;4.786;2023-04-09T13:41:37;28.30;46.60
21039;DHT22;10678;51.002;4.786;2023-04-09T13:44:03;28.70;44.70
21039;DHT22;10678;51.002;4.786;2023-04-09T13:46:28;27.90;44.30
21039;DHT22;10678;51.002;4.786;2023-04-09T13:48:54;27.30;45.70
21039;DHT22;10678;51.002;4.786;2023-04-09T13:51:21;27.80;45.30
21039;DHT22;10678;51.002;4.786;2023-04-09T13:53:47;29.10;44.60
21039;DHT22;10678;51.002;4.786;2023-04-09T13:56:13;28.90;43.10
21039;DHT22;10678;51.002;4.786;2023-04-09T13:58:39;27.20;44.70
21039;DHT22;10678;51.002;4.786;2023-04-09T14:01:06;25.90;48.80
21039;DHT22;10678;51.002;4.786;2023-04-09T14:03:31;25.40;48.70
21039;DHT22;10678;51.002;4.786;2023-04-09T14:05:57;24.70;51.30
21039;DHT22;10678;51.002;4.786;2023-04-09T14:08:22;24.10;52.10
21039;DHT22;10678;51.002;4.786;2023-04-09T14:10:48;23.20;52.80
21039;DHT22;10678;51.002;4.786;2023-04-09T14:13:14;22.90;52.90
21039;DHT22;10678;51.002;4.786;2023-04-09T14:15:39;22.60;53.80
21039;DHT22;10678;51.002;4.786;2023-04-09T14:18:06;22.90;53.60
21039;DHT22;10678;51.002;4.786;2023-04-09T14:20:33;23.30;54.20
21039;DHT22;10678;51.002;4.786;2023-04-09T14:22:59;23.40;53.90
21039;DHT22;10678;51.002;4.786;2023-04-09T14:25:24;23.30;53.50
21039;DHT22;10678;51.002;4.786;2023-04-09T14:27:50;23.60;54.40
21039;DHT22;10678;51.002;4.786;2023-04-09T14:30:16;23.00;54.50
21039;DHT22;10678;51.002;4.786;2023-04-09T14:32:42;22.90;54.10
21039;DHT22;10678;51.002;4.786;2023-04-09T14:35:08;22.20;54.90
21039;DHT22;10678;51.002;4.786;2023-04-09T14:37:33;21.60;58.30
21039;DHT22;10678;51.002;4.786;2023-04-09T14:39:59;21.50;57.60
21039;DHT22;10678;51.002;4.786;2023-04-09T14:42:24;20.90;58.10
21039;DHT22;10678;51.002;4.786;2023-04-09T14:44:50;21.00;59.90
21039;DHT22;10678;51.002;4.786;2023-04-09T14:47:15;20.80;62.60
21039;DHT22;10678;51.002;4.786;2023-04-09T14:49:41;20.70;60.70
21039;DHT22;10678;51.002;4.786;2023-04-09T14:52:07;20.70;61.10
21039;DHT22;10678;51.002;4.786;2023-04-09T14:54:32;20.60;60.90
21039;DHT22;10678;51.002;4.786;2023-04-09T14:56:58;20.70;60.70
21039;DHT22;10678;51.002;4.786;2023-04-09T14:59:24;20.50;62.10
21039;DHT22;10678;51.002;4.786;2023-04-09T15:01:50;20.40;62.60
21039;DHT22;10678;51.002;4.786;2023-04-09T15:04:16;20.30;64.20
21039;DHT22;10678;51.002;4.786;2023-04-09T15:06:42;20.20;60.70
21039;DHT22;10678;51.002;4.786;2023-04-09T15:09:08;19.90;63.90
21039;DHT22;10678;51.002;4.786;2023-04-09T15:11:33;19.60;62.70
21039;DHT22;10678;51.002;4.786;2023-04-09T15:13:59;19.70;65.00
21039;DHT22;10678;51.002;4.786;2023-04-09T15:16:26;19.70;63.00
21039;DHT22;10678;51.002;4.786;2023-04-09T15:18:53;19.70;62.20
21039;DHT22;10678;51.002;4.786;2023-04-09T15:21:20;19.40;64.40
21039;DHT22;10678;51.002;4.786;2023-04-09T15:23:46;19.00;65.30
21039;DHT22;10678;51.002;4.786;2023-04-09T15:26:11;19.00;67.00
21039;DHT22;10678;51.002;4.786;2023-04-09T15:28:37;19.20;69.00
21039;DHT22;10678;51.002;4.786;2023-04-09T15:31:03;19.50;66.80
21039;DHT22;10678;51.002;4.786;2023-04-09T15:33:28;19.60;66.30
21039;DHT22;10678;51.002;4.786;2023-04-09T15:35:55;19.80;64.80
21039;DHT22;10678;51.002;4.786;2023-04-09T15:38:21;19.80;65.30
21039;DHT22;10678;51.002;4.786;2023-04-09T15:40:49;19.90;64.90
21039;DHT22;10678;51.002;4.786;2023-04-09T15:43:15;19.80;64.70
21039;DHT22;10678;51.002;4.786;2023-04-09T15:45:42;19.70;65.00
21039;DHT22;10678;51.002;4.786;2023-04-09T15:48:08;19.50;65.40
21039;DHT22;10678;51.002;4.786;2023-04-09T15:50:33;19.30;68.20
21039;DHT22;10678;51.002;4.786;2023-04-09T15:52:59;19.20;68.50
21039;DHT22;10678;51.002;4.786;2023-04-09T15:55:25;18.90;69.00
21039;DHT22;10678;51.002;4.786;2023-04-09T15:57:51;18.90;70.00
21039;DHT22;10678;51.002;4.786;2023-04-09T16:00:16;19.00;70.40